الصفحة الرئيسية
METAR-TAF:

METAR-TAF

مطار :

مطار تايوان تاويوان الدولي

تايبيه, تايوان

دائرة عرض: 25-05N, خط طول: 121-13E, ارتفاع: 33 متر

مراقبة الطقس الحالي

تاريخ ووقت الإصدار 43 دقيقة قبل الساعة 18:00UTC
ريح 19 عقدة من الغرب/الجنوب الغربي تتزايد حتى 29 عقدة
درجة الحرارة 29°درجة مئوية
الرطوبة 74%
ضغط 1003 hPa
الرؤية 10 كم أو أكثر
غيوم قليلة على ارتفاع 1500 قدم
غيوم مفككة على ارتفاع 15000 قدم

METAR: RCTP 141800Z 24019G29KT 9999 FEW015 BKN150 29/24 Q1003 WS R23R NOSIG RMK A2964

زمن: 02:43 (18:43 UTC)

توقعات

تاريخ ووقت الإصدار 1ساعة و 43 دقيقة قبل الساعة 17:00UTC
التوقعات صالحة من14 الساعة 18 UTC إلى 15 الساعة 24 UTC
ريح 17 عقدة من الغرب/الجنوب الغربي
الرؤية 10 كم أو أكثر
غيوم قليلة على ارتفاع 1500 قدم
غيوم مفككة على ارتفاع 3200 قدم
مؤقت
من 15 الساعة 03 UTC إلى 15 الساعة 09 UTC
ريح 22 عقدة من الغرب/الجنوب الغربي
غيوم قليلة على ارتفاع 1000 قدم
غيوم مفككة على ارتفاع 2000 قدم
مؤقت
من 15 الساعة 10 UTC إلى 15 الساعة 16 UTC
ريح 10 عقدة من الجنوب الغربي

TAF: RCTP 141700Z 1418/1524 25017KT 9999 FEW015 BKN032 TEMPO 1503/1509 24022KT FEW010 BKN020 TEMPO 1510/1516 22010KT

أرصاد الطقس والتوقعات من أكثر من 4000 مطار (تقارير الطقس للمطار METAR والتنبؤ بالطقس بالمطارTAF).

المحطات المتاحة هي النقط الصفراء والحمراء على الخريطة.

حرك المؤشر فوق النقطة لمعرفة اسم المحطة.

ثم انقر لمعرفة أرصاد وتوقعات الطقس.

لتغيير الخارطة: اضغط على الأزرار الخضراء مع رمز الصليب الأسود للتكبير. على الزر الأخضر مع شرطة للتصغير، أو على الأسهم الخضراء للخرائط المجاورة.


METAR-TAF: